Tuesday, January 23, 2018, 7:16 AM EST
Back to Local

KSFZ, Pawtucket, North Central State Airport

Location: Smithfield, RI, United States Lat: 41.917
Local Time: 7:16 AM EST (12:16 GMT) Lon: -71.5
Time Zone: US/Eastern Elev: 439 ft

Show me the last for .
Show Coded

Time T Td Feel RH Dir Speed Gust Alt SLP Vis Weather Sky Remarks
2018-01-23 05:56 - - - 0 30° 9 - 29.95 - 0 -RA OVC003 1-hr Precip Total: Trace
2018-01-23 04:56 - - - 0 20° 5 - 29.99 - 0 FG OVC003 1-hr Precip Total: 0.01"
2018-01-23 03:56 - - - 0 60° 3 - 30.00 - 0 -RA OVC003 1-hr Precip Total: Trace
6-hr Precip Total (4am): 0.00"
2018-01-23 02:56 - - - 0 40° 5 - 30.05 - 0 -RA OVC003 1-hr Precip Total: Trace
2018-01-23 01:56 - - - 0 40° 6 - 30.07 - 0 -RA OVC003 1-hr Precip Total: Trace
2018-01-23 00:56 - - - 0 40° 5 - 30.11 - 0 -RA OVC003 None
2018-01-22 23:56 - - - 0 40° 5 - 30.11 - 0 FG OVC003 None
2018-01-22 22:56 - - - 0 50° 5 - 30.14 - 0 FG OVC003 None
2018-01-22 21:56 - - - 0 70° 3 - 30.17 - 0 FG OVC003 None
2018-01-22 20:56 - - - 0 70° 5 - 30.20 - 0 FG OVC003 1-hr Precip Total: Trace
2018-01-22 20:05 - - - 0 90° 5 - 30.20 - 0 -RA OVC003 1-hr Precip Total: Trace
2018-01-22 19:56 - - - 0 90° 6 - 30.21 - 0 -RA OVC003 1-hr Precip Total: Trace
2018-01-22 19:52 - - - 0 90° 7 - 30.21 - 0 -RA OVC003 1-hr Precip Total: Trace
2018-01-22 19:41 - - - 0 90° 6 - 30.21 - 1 -RA OVC003 1-hr Precip Total: Trace
2018-01-22 19:28 - - - 0 80° 8 - 30.22 - 0 UP OVC003 1-hr Precip Total: Trace
2018-01-22 19:10 - - - 0 90° 7 - 30.23 - 0 UP OVC003 1-hr Precip Total: Trace
2018-01-22 18:56 - - - 0 100° 7 - 30.23 - 1 BR OVC003 1-hr Precip Total: Trace
2018-01-22 17:56 - - - 0 60° 8 - 30.23 - 1 UP OVC003 1-hr Precip Total: Trace
2018-01-22 17:03 - - - 0 60° 8 - 30.23 - 1 BR OVC003 None
2018-01-22 16:56 - - - 0 60° 7 - 30.23 - 0 BR OVC003 1-hr Precip Total: Trace
2018-01-22 16:40 - - - 0 60° 5 - 30.23 - 0 BR OVC003 1-hr Precip Total: Trace
2018-01-22 16:16 - - - 0 60° 8 - - - 0 UP OVC003 1-hr Precip Total: Trace
2018-01-22 15:56 - - - 0 80° 6 - 30.22 - 0 UP OVC003 None
2018-01-22 14:56 - - - 0 80° 5 - 30.23 - 1 BR OVC003 1-hr Precip Total: Trace
2018-01-22 14:53 - - - 0 70° 7 - 30.22 - 1 BR OVC003 1-hr Precip Total: Trace
2018-01-22 14:39 - - - 0 80° 6 - 30.22 - 0 BR OVC003 1-hr Precip Total: Trace
2018-01-22 14:31 - - - 0 80° 6 - 30.22 - 0 -RA OVC003 1-hr Precip Total: Trace
2018-01-22 14:05 - - - 0 40° 9 - 30.23 - 0 -RA OVC003 1-hr Precip Total: Trace
2018-01-22 13:56 - - - 0 50° 7 - 30.23 - 0 UP OVC003 1-hr Precip Total: Trace
2018-01-22 13:39 - - - 0 - - - 30.23 - 0 UP OVC003 1-hr Precip Total: Trace
2018-01-22 13:27 - - - 0 40° 8 - 30.23 - 0 UP OVC003 1-hr Precip Total: Trace
2018-01-22 13:17 - - - 0 40° 7 - 30.24 - 0 UP OVC003 1-hr Precip Total: Trace
2018-01-22 12:56 - - - 0 20° 6 - 30.24 - 0 FG OVC003 1-hr Precip Total: Trace
6-hr Precip Total (1pm): 0.06"
2018-01-22 12:39 - - - 0 40° 5 - 30.24 - 0 BR OVC003 1-hr Precip Total: Trace
2018-01-22 12:23 - - - 0 50° 5 - 30.23 - 0 FG OVC003 1-hr Precip Total: Trace
2018-01-22 12:15 - - - 0 10° 6 - - - 1 BR OVC003 1-hr Precip Total: Trace
2018-01-22 12:06 - - - 0 Variable 6 - 30.24 - 0 BR OVC003 1-hr Precip Total: Trace
2018-01-22 11:56 - - - 0 120° 9 - 30.22 - 0 -RA OVC003 1-hr Precip Total: 0.02"
2018-01-22 11:46 - - - 0 130° 10 - 30.22 - 0 -RA OVC003 1-hr Precip Total: 0.02"
2018-01-22 11:23 - - - 0 100° 5 - 30.25 - 0 -RA OVC003 1-hr Precip Total: 0.01"
2018-01-22 10:56 - - - 0 70° 3 - 30.26 - 0 UP OVC003 1-hr Precip Total: 0.02"
2018-01-22 10:33 - - - 0 70° 3 - 30.27 - 0 -RA OVC003 1-hr Precip Total: 0.02"
2018-01-22 10:25 - - - 0 90° 3 - 30.27 - 0 -RA OVC003 1-hr Precip Total: 0.01"
2018-01-22 10:10 - - - 0 50° 3 - 30.27 - 0 -RA OVC003 1-hr Precip Total: Trace
2018-01-22 09:56 - - - 0 40° 3 - 30.27 - 0 -RA BKN003 OVC007 1-hr Precip Total: 0.01"
6-hr Precip Total (10am): 0.02"
2018-01-22 09:49 - - - 0 - Calm - 30.27 - 0 -RA OVC005 1-hr Precip Total: 0.01"
2018-01-22 09:20 - - - 0 - Calm - 30.26 - 0 -RA BKN007 OVC011 1-hr Precip Total: Trace
2018-01-22 09:11 - - - 0 - Calm - 30.25 - 1 -RA SCT004 BKN007 OVC011 1-hr Precip Total: Trace
2018-01-22 08:56 - - - 0 Variable 3 - - - 0 -RA BKN004 OVC011 1-hr Precip Total: 0.01"
2018-01-22 08:54 - - - 0 - Calm - 30.24 - 0 -RA BKN004 OVC011 1-hr Precip Total: 0.01"
2018-01-22 08:41 - - - 0 - Calm - 30.23 - 0 UP BKN004 BKN009 OVC012 1-hr Precip Total: Trace
2018-01-22 08:32 - - - 0 - Calm - 30.23 - 0 UP SCT006 OVC012 1-hr Precip Total: Trace
2018-01-22 08:15 - - - 0 - Calm - 30.23 - 0 -RA SCT004 BKN008 OVC014 1-hr Precip Total: Trace
2018-01-22 08:11 - - - 0 - Calm - 30.23 - 0 -RA BKN004 OVC008 1-hr Precip Total: Trace
2018-01-22 07:56 - - - 0 - Calm - 30.22 - 0 UP BKN004 OVC007 1-hr Precip Total: Trace
2018-01-22 07:35 - - - 0 - Calm - 30.22 - 0 UP BKN007 OVC013 1-hr Precip Total: Trace
2018-01-22 07:25 - - - 0 - Calm - 30.21 - 1 UP BKN005 BKN013 OVC020 1-hr Precip Total: Trace
2018-01-22 07:19 - - - 0 - Calm - 30.21 - 1 UP SCT005 BKN013 OVC020 1-hr Precip Total: Trace

Support USWX by starting your Amazon purchase here.